sensor_id;sensor_type;location;lat;lon;timestamp;temperature;humidity
37300;DHT22;23184;51.902;12.836;2023-04-25T00:01:37;5.60;99.90
37300;DHT22;23184;51.902;12.836;2023-04-25T00:04:03;5.70;99.90
37300;DHT22;23184;51.902;12.836;2023-04-25T00:06:31;5.70;99.90
37300;DHT22;23184;51.902;12.836;2023-04-25T00:08:57;5.60;99.90
37300;DHT22;23184;51.902;12.836;2023-04-25T00:11:23;5.80;99.90
37300;DHT22;23184;51.902;12.836;2023-04-25T00:13:49;5.70;99.90
37300;DHT22;23184;51.902;12.836;2023-04-25T00:16:18;5.60;99.90
37300;DHT22;23184;51.902;12.836;2023-04-25T00:18:43;5.60;99.90
37300;DHT22;23184;51.902;12.836;2023-04-25T00:21:11;5.50;99.90
37300;DHT22;23184;51.902;12.836;2023-04-25T00:23:37;5.40;99.90
37300;DHT22;23184;51.902;12.836;2023-04-25T00:26:04;5.40;99.90
37300;DHT22;23184;51.902;12.836;2023-04-25T00:28:30;5.50;99.90
37300;DHT22;23184;51.902;12.836;2023-04-25T00:30:55;5.50;99.90
37300;DHT22;23184;51.902;12.836;2023-04-25T00:33:21;5.50;99.90
37300;DHT22;23184;51.902;12.836;2023-04-25T00:35:46;5.60;99.90
37300;DHT22;23184;51.902;12.836;2023-04-25T00:38:12;5.70;99.90
37300;DHT22;23184;51.902;12.836;2023-04-25T00:40:37;5.80;99.90
37300;DHT22;23184;51.902;12.836;2023-04-25T00:43:03;5.80;99.90
37300;DHT22;23184;51.902;12.836;2023-04-25T00:45:29;5.90;99.90
37300;DHT22;23184;51.902;12.836;2023-04-25T00:47:55;5.90;99.90
37300;DHT22;23184;51.902;12.836;2023-04-25T00:50:21;6.00;99.90
37300;DHT22;23184;51.902;12.836;2023-04-25T00:52:47;6.00;99.90
37300;DHT22;23184;51.902;12.836;2023-04-25T00:55:13;6.10;99.90
37300;DHT22;23184;51.902;12.836;2023-04-25T00:57:39;6.10;99.90
37300;DHT22;23184;51.902;12.836;2023-04-25T01:00:06;6.00;99.90
37300;DHT22;23184;51.902;12.836;2023-04-25T01:02:33;6.00;99.90
37300;DHT22;23184;51.902;12.836;2023-04-25T01:04:59;5.90;99.90
37300;DHT22;23184;51.902;12.836;2023-04-25T01:07:25;5.90;99.90
37300;DHT22;23184;51.902;12.836;2023-04-25T01:09:54;6.00;99.90
37300;DHT22;23184;51.902;12.836;2023-04-25T01:12:19;6.00;99.90
37300;DHT22;23184;51.902;12.836;2023-04-25T01:14:46;6.00;99.90
37300;DHT22;23184;51.902;12.836;2023-04-25T01:17:11;6.00;99.90
37300;DHT22;23184;51.902;12.836;2023-04-25T01:19:37;6.10;99.90
37300;DHT22;23184;51.902;12.836;2023-04-25T01:22:03;6.10;99.90
37300;DHT22;23184;51.902;12.836;2023-04-25T01:24:30;6.10;99.90
37300;DHT22;23184;51.902;12.836;2023-04-25T01:26:58;6.20;99.90
37300;DHT22;23184;51.902;12.836;2023-04-25T01:29:24;6.20;99.90
37300;DHT22;23184;51.902;12.836;2023-04-25T01:31:52;6.20;99.90
37300;DHT22;23184;51.902;12.836;2023-04-25T01:34:18;6.20;99.90
37300;DHT22;23184;51.902;12.836;2023-04-25T01:36:44;6.20;99.90
37300;DHT22;23184;51.902;12.836;2023-04-25T01:39:10;6.20;99.90
37300;DHT22;23184;51.902;12.836;2023-04-25T01:41:35;6.10;99.90
37300;DHT22;23184;51.902;12.836;2023-04-25T01:44:02;6.00;99.90
37300;DHT22;23184;51.902;12.836;2023-04-25T01:46:28;6.00;99.90
37300;DHT22;23184;51.902;12.836;2023-04-25T01:48:54;5.80;99.90
37300;DHT22;23184;51.902;12.836;2023-04-25T01:51:19;5.80;99.90
37300;DHT22;23184;51.902;12.836;2023-04-25T01:53:45;5.80;99.90
37300;DHT22;23184;51.902;12.836;2023-04-25T01:56:11;5.70;99.90
37300;DHT22;23184;51.902;12.836;2023-04-25T01:58:36;5.70;99.90
37300;DHT22;23184;51.902;12.836;2023-04-25T02:01:02;5.70;99.90
37300;DHT22;23184;51.902;12.836;2023-04-25T02:03:27;5.70;99.90
37300;DHT22;23184;51.902;12.836;2023-04-25T02:05:53;5.80;99.90
37300;DHT22;23184;51.902;12.836;2023-04-25T02:08:18;5.90;99.90
37300;DHT22;23184;51.902;12.836;2023-04-25T02:10:44;6.00;99.90
37300;DHT22;23184;51.902;12.836;2023-04-25T02:13:10;6.20;99.90
37300;DHT22;23184;51.902;12.836;2023-04-25T02:15:35;6.20;99.90
37300;DHT22;23184;51.902;12.836;2023-04-25T02:18:01;6.20;99.90
37300;DHT22;23184;51.902;12.836;2023-04-25T02:20:28;6.30;99.90
37300;DHT22;23184;51.902;12.836;2023-04-25T02:22:54;6.30;99.90
37300;DHT22;23184;51.902;12.836;2023-04-25T02:25:20;6.40;99.90
37300;DHT22;23184;51.902;12.836;2023-04-25T02:27:46;6.50;99.90
37300;DHT22;23184;51.902;12.836;2023-04-25T02:30:12;6.60;99.90
37300;DHT22;23184;51.902;12.836;2023-04-25T02:32:39;6.60;99.90
37300;DHT22;23184;51.902;12.836;2023-04-25T02:35:04;6.50;99.90
37300;DHT22;23184;51.902;12.836;2023-04-25T02:37:31;6.60;99.90
37300;DHT22;23184;51.902;12.836;2023-04-25T02:39:57;6.50;99.90
37300;DHT22;23184;51.902;12.836;2023-04-25T02:42:24;6.60;99.90
37300;DHT22;23184;51.902;12.836;2023-04-25T02:44:49;6.50;99.90
37300;DHT22;23184;51.902;12.836;2023-04-25T02:47:15;6.50;99.90
37300;DHT22;23184;51.902;12.836;2023-04-25T02:49:40;6.50;99.90
37300;DHT22;23184;51.902;12.836;2023-04-25T02:52:06;6.50;99.90
37300;DHT22;23184;51.902;12.836;2023-04-25T02:54:31;6.50;99.90
37300;DHT22;23184;51.902;12.836;2023-04-25T02:56:57;6.40;99.90
37300;DHT22;23184;51.902;12.836;2023-04-25T02:59:22;6.40;99.90
37300;DHT22;23184;51.902;12.836;2023-04-25T03:01:48;6.40;99.90
37300;DHT22;23184;51.902;12.836;2023-04-25T03:04:14;6.50;99.90
37300;DHT22;23184;51.902;12.836;2023-04-25T03:06:39;6.40;99.90
37300;DHT22;23184;51.902;12.836;2023-04-25T03:09:05;6.40;99.90
37300;DHT22;23184;51.902;12.836;2023-04-25T03:11:30;6.30;99.90
37300;DHT22;23184;51.902;12.836;2023-04-25T03:13:56;6.30;99.90
37300;DHT22;23184;51.902;12.836;2023-04-25T03:16:22;6.20;99.90
37300;DHT22;23184;51.902;12.836;2023-04-25T03:18:47;6.30;99.90
37300;DHT22;23184;51.902;12.836;2023-04-25T03:21:14;6.30;99.90
37300;DHT22;23184;51.902;12.836;2023-04-25T03:23:40;6.30;99.90
37300;DHT22;23184;51.902;12.836;2023-04-25T03:26:05;6.20;99.90
37300;DHT22;23184;51.902;12.836;2023-04-25T03:28:31;6.20;99.90
37300;DHT22;23184;51.902;12.836;2023-04-25T03:30:57;6.10;99.90
37300;DHT22;23184;51.902;12.836;2023-04-25T03:33:22;6.10;99.90
37300;DHT22;23184;51.902;12.836;2023-04-25T03:35:48;6.00;99.90
37300;DHT22;23184;51.902;12.836;2023-04-25T03:38:13;6.00;99.90
37300;DHT22;23184;51.902;12.836;2023-04-25T03:40:39;6.00;99.90
37300;DHT22;23184;51.902;12.836;2023-04-25T03:43:04;6.00;99.90
37300;DHT22;23184;51.902;12.836;2023-04-25T03:45:30;6.00;99.90
37300;DHT22;23184;51.902;12.836;2023-04-25T03:47:55;6.00;99.90
37300;DHT22;23184;51.902;12.836;2023-04-25T03:50:21;6.00;99.90
37300;DHT22;23184;51.902;12.836;2023-04-25T03:52:47;6.10;99.90
37300;DHT22;23184;51.902;12.836;2023-04-25T03:55:12;6.00;99.90
37300;DHT22;23184;51.902;12.836;2023-04-25T03:57:37;6.00;99.90
37300;DHT22;23184;51.902;12.836;2023-04-25T04:00:03;5.90;99.90
37300;DHT22;23184;51.902;12.836;2023-04-25T04:02:30;5.90;99.90
37300;DHT22;23184;51.902;12.836;2023-04-25T04:04:56;5.90;99.90
37300;DHT22;23184;51.902;12.836;2023-04-25T04:07:22;5.90;99.90
37300;DHT22;23184;51.902;12.836;2023-04-25T04:09:47;5.90;99.90
37300;DHT22;23184;51.902;12.836;2023-04-25T04:12:13;6.00;99.90
37300;DHT22;23184;51.902;12.836;2023-04-25T04:14:38;6.00;99.90
37300;DHT22;23184;51.902;12.836;2023-04-25T04:17:04;6.10;99.90
37300;DHT22;23184;51.902;12.836;2023-04-25T04:19:31;6.10;99.90
37300;DHT22;23184;51.902;12.836;2023-04-25T04:21:56;6.10;99.90
37300;DHT22;23184;51.902;12.836;2023-04-25T04:24:22;6.10;99.90
37300;DHT22;23184;51.902;12.836;2023-04-25T04:26:47;6.10;99.90
37300;DHT22;23184;51.902;12.836;2023-04-25T04:29:13;6.10;99.90
37300;DHT22;23184;51.902;12.836;2023-04-25T04:31:49;6.10;99.90
37300;DHT22;23184;51.902;12.836;2023-04-25T04:34:16;6.10;99.90
37300;DHT22;23184;51.902;12.836;2023-04-25T04:36:43;6.10;99.90
37300;DHT22;23184;51.902;12.836;2023-04-25T04:39:12;6.10;99.90
37300;DHT22;23184;51.902;12.836;2023-04-25T04:41:41;6.20;99.90
37300;DHT22;23184;51.902;12.836;2023-04-25T04:44:08;6.20;99.90
37300;DHT22;23184;51.902;12.836;2023-04-25T04:46:34;6.20;99.90
37300;DHT22;23184;51.902;12.836;2023-04-25T04:49:08;6.20;99.90
37300;DHT22;23184;51.902;12.836;2023-04-25T04:51:33;6.20;99.90
37300;DHT22;23184;51.902;12.836;2023-04-25T04:54:02;6.20;99.90
37300;DHT22;23184;51.902;12.836;2023-04-25T04:56:54;6.30;99.90
37300;DHT22;23184;51.902;12.836;2023-04-25T04:59:24;6.30;99.90
37300;DHT22;23184;51.902;12.836;2023-04-25T05:01:49;6.30;99.90
37300;DHT22;23184;51.902;12.836;2023-04-25T05:04:15;6.40;99.90
37300;DHT22;23184;51.902;12.836;2023-04-25T05:06:40;6.50;99.90
37300;DHT22;23184;51.902;12.836;2023-04-25T05:09:06;6.60;99.90
37300;DHT22;23184;51.902;12.836;2023-04-25T05:11:31;6.70;99.90
37300;DHT22;23184;51.902;12.836;2023-04-25T05:13:57;6.70;99.90
37300;DHT22;23184;51.902;12.836;2023-04-25T05:16:22;6.80;99.90
37300;DHT22;23184;51.902;12.836;2023-04-25T05:18:48;6.90;99.90
37300;DHT22;23184;51.902;12.836;2023-04-25T05:21:14;6.90;99.90
37300;DHT22;23184;51.902;12.836;2023-04-25T05:23:39;6.70;99.90
37300;DHT22;23184;51.902;12.836;2023-04-25T05:26:05;6.70;99.90
37300;DHT22;23184;51.902;12.836;2023-04-25T05:28:32;6.60;99.90
37300;DHT22;23184;51.902;12.836;2023-04-25T05:30:59;6.60;99.90
37300;DHT22;23184;51.902;12.836;2023-04-25T05:33:25;6.60;99.90
37300;DHT22;23184;51.902;12.836;2023-04-25T05:35:51;6.50;99.90
37300;DHT22;23184;51.902;12.836;2023-04-25T05:38:16;6.50;99.90
37300;DHT22;23184;51.902;12.836;2023-04-25T05:40:43;6.40;99.90
37300;DHT22;23184;51.902;12.836;2023-04-25T05:43:09;6.50;99.90
37300;DHT22;23184;51.902;12.836;2023-04-25T05:45:36;6.60;99.90
37300;DHT22;23184;51.902;12.836;2023-04-25T05:48:08;6.70;99.90
37300;DHT22;23184;51.902;12.836;2023-04-25T05:50:35;6.80;99.90
37300;DHT22;23184;51.902;12.836;2023-04-25T05:53:02;6.90;99.90
37300;DHT22;23184;51.902;12.836;2023-04-25T05:55:28;7.10;99.90
37300;DHT22;23184;51.902;12.836;2023-04-25T05:57:54;7.30;99.90
37300;DHT22;23184;51.902;12.836;2023-04-25T06:00:20;7.30;99.90
37300;DHT22;23184;51.902;12.836;2023-04-25T06:02:48;7.40;99.90
37300;DHT22;23184;51.902;12.836;2023-04-25T06:05:16;7.50;99.90
37300;DHT22;23184;51.902;12.836;2023-04-25T06:07:42;7.70;99.90
37300;DHT22;23184;51.902;12.836;2023-04-25T06:10:08;7.80;99.90
37300;DHT22;23184;51.902;12.836;2023-04-25T06:12:34;8.00;99.90
37300;DHT22;23184;51.902;12.836;2023-04-25T06:15:00;8.30;99.90
37300;DHT22;23184;51.902;12.836;2023-04-25T06:17:26;8.30;99.90
37300;DHT22;23184;51.902;12.836;2023-04-25T06:19:53;8.40;99.90
37300;DHT22;23184;51.902;12.836;2023-04-25T06:22:18;8.40;99.90
37300;DHT22;23184;51.902;12.836;2023-04-25T06:24:44;8.50;99.90
37300;DHT22;23184;51.902;12.836;2023-04-25T06:27:11;8.70;99.90
37300;DHT22;23184;51.902;12.836;2023-04-25T06:29:36;8.80;99.90
37300;DHT22;23184;51.902;12.836;2023-04-25T06:32:02;8.90;99.90
37300;DHT22;23184;51.902;12.836;2023-04-25T06:34:27;9.00;99.90
37300;DHT22;23184;51.902;12.836;2023-04-25T06:36:53;8.90;99.90
37300;DHT22;23184;51.902;12.836;2023-04-25T06:39:18;8.90;99.90
37300;DHT22;23184;51.902;12.836;2023-04-25T06:41:45;8.90;99.90
37300;DHT22;23184;51.902;12.836;2023-04-25T06:44:10;8.90;99.90
37300;DHT22;23184;51.902;12.836;2023-04-25T06:46:36;8.80;99.90
37300;DHT22;23184;51.902;12.836;2023-04-25T06:49:02;8.80;99.90
37300;DHT22;23184;51.902;12.836;2023-04-25T06:51:28;8.80;99.90
37300;DHT22;23184;51.902;12.836;2023-04-25T06:53:55;8.70;99.90
37300;DHT22;23184;51.902;12.836;2023-04-25T06:56:21;8.90;99.90
37300;DHT22;23184;51.902;12.836;2023-04-25T06:58:46;8.90;99.90
37300;DHT22;23184;51.902;12.836;2023-04-25T07:01:12;8.90;99.90
37300;DHT22;23184;51.902;12.836;2023-04-25T07:03:37;8.80;99.90
37300;DHT22;23184;51.902;12.836;2023-04-25T07:06:03;8.90;99.90
37300;DHT22;23184;51.902;12.836;2023-04-25T07:08:29;8.90;99.90
37300;DHT22;23184;51.902;12.836;2023-04-25T07:10:55;9.00;99.90
37300;DHT22;23184;51.902;12.836;2023-04-25T07:13:21;9.10;99.90
37300;DHT22;23184;51.902;12.836;2023-04-25T07:15:46;9.20;99.90
37300;DHT22;23184;51.902;12.836;2023-04-25T07:18:13;9.20;99.90
37300;DHT22;23184;51.902;12.836;2023-04-25T07:20:38;9.20;99.90
37300;DHT22;23184;51.902;12.836;2023-04-25T07:23:04;9.20;99.90
37300;DHT22;23184;51.902;12.836;2023-04-25T07:25:30;9.20;99.90
37300;DHT22;23184;51.902;12.836;2023-04-25T07:27:56;9.00;99.90
37300;DHT22;23184;51.902;12.836;2023-04-25T07:30:22;9.00;99.90
37300;DHT22;23184;51.902;12.836;2023-04-25T07:32:48;8.90;99.90
37300;DHT22;23184;51.902;12.836;2023-04-25T07:35:14;8.80;99.90
37300;DHT22;23184;51.902;12.836;2023-04-25T07:37:39;8.80;99.90
37300;DHT22;23184;51.902;12.836;2023-04-25T07:40:05;8.90;99.90
37300;DHT22;23184;51.902;12.836;2023-04-25T07:42:31;8.80;99.90
37300;DHT22;23184;51.902;12.836;2023-04-25T07:44:57;8.80;99.90
37300;DHT22;23184;51.902;12.836;2023-04-25T07:47:23;8.80;99.90
37300;DHT22;23184;51.902;12.836;2023-04-25T07:49:48;8.70;99.90
37300;DHT22;23184;51.902;12.836;2023-04-25T07:52:14;8.60;99.90
37300;DHT22;23184;51.902;12.836;2023-04-25T07:54:39;8.50;99.90
37300;DHT22;23184;51.902;12.836;2023-04-25T07:57:05;8.50;99.90
37300;DHT22;23184;51.902;12.836;2023-04-25T07:59:34;8.50;99.90
37300;DHT22;23184;51.902;12.836;2023-04-25T08:02:00;8.50;99.90
37300;DHT22;23184;51.902;12.836;2023-04-25T08:04:26;8.40;99.90
37300;DHT22;23184;51.902;12.836;2023-04-25T08:06:51;8.40;99.90
37300;DHT22;23184;51.902;12.836;2023-04-25T08:09:19;8.40;99.90
37300;DHT22;23184;51.902;12.836;2023-04-25T08:11:45;8.30;99.90
37300;DHT22;23184;51.902;12.836;2023-04-25T08:14:12;8.20;99.90
37300;DHT22;23184;51.902;12.836;2023-04-25T08:16:37;8.20;99.90
37300;DHT22;23184;51.902;12.836;2023-04-25T08:19:03;8.20;99.90
37300;DHT22;23184;51.902;12.836;2023-04-25T08:21:28;8.20;99.90
37300;DHT22;23184;51.902;12.836;2023-04-25T08:23:54;8.20;99.90
37300;DHT22;23184;51.902;12.836;2023-04-25T08:26:19;8.30;99.90
37300;DHT22;23184;51.902;12.836;2023-04-25T08:28:46;8.30;99.90
37300;DHT22;23184;51.902;12.836;2023-04-25T08:31:11;8.50;99.90
37300;DHT22;23184;51.902;12.836;2023-04-25T08:33:37;8.70;99.90
37300;DHT22;23184;51.902;12.836;2023-04-25T08:36:03;9.00;99.90
37300;DHT22;23184;51.902;12.836;2023-04-25T08:38:28;9.30;99.90
37300;DHT22;23184;51.902;12.836;2023-04-25T08:40:54;9.60;99.90
37300;DHT22;23184;51.902;12.836;2023-04-25T08:43:20;10.00;99.90
37300;DHT22;23184;51.902;12.836;2023-04-25T08:45:46;10.30;99.90
37300;DHT22;23184;51.902;12.836;2023-04-25T08:48:14;10.50;99.90
37300;DHT22;23184;51.902;12.836;2023-04-25T08:50:43;10.80;99.90
37300;DHT22;23184;51.902;12.836;2023-04-25T08:53:12;11.10;99.90
37300;DHT22;23184;51.902;12.836;2023-04-25T08:55:45;11.30;99.90
37300;DHT22;23184;51.902;12.836;2023-04-25T08:58:11;11.00;99.90
37300;DHT22;23184;51.902;12.836;2023-04-25T09:00:37;10.90;99.90
37300;DHT22;23184;51.902;12.836;2023-04-25T09:03:03;10.90;99.90
37300;DHT22;23184;51.902;12.836;2023-04-25T09:05:29;10.90;99.90
37300;DHT22;23184;51.902;12.836;2023-04-25T09:07:54;10.90;99.90
37300;DHT22;23184;51.902;12.836;2023-04-25T09:10:21;10.90;99.90
37300;DHT22;23184;51.902;12.836;2023-04-25T09:13:02;10.60;99.90
37300;DHT22;23184;51.902;12.836;2023-04-25T09:15:29;10.50;99.90
37300;DHT22;23184;51.902;12.836;2023-04-25T09:17:56;10.70;99.90
37300;DHT22;23184;51.902;12.836;2023-04-25T09:20:21;10.60;99.90
37300;DHT22;23184;51.902;12.836;2023-04-25T09:22:47;10.60;99.90
37300;DHT22;23184;51.902;12.836;2023-04-25T09:25:13;10.60;99.90
37300;DHT22;23184;51.902;12.836;2023-04-25T09:27:49;10.30;99.90
37300;DHT22;23184;51.902;12.836;2023-04-25T09:30:16;10.20;99.90
37300;DHT22;23184;51.902;12.836;2023-04-25T09:32:43;10.30;99.90
37300;DHT22;23184;51.902;12.836;2023-04-25T09:35:09;10.20;99.90
37300;DHT22;23184;51.902;12.836;2023-04-25T09:37:34;10.10;99.90
37300;DHT22;23184;51.902;12.836;2023-04-25T09:40:05;10.00;99.90
37300;DHT22;23184;51.902;12.836;2023-04-25T09:42:31;10.00;99.90
37300;DHT22;23184;51.902;12.836;2023-04-25T09:45:00;10.00;99.90
37300;DHT22;23184;51.902;12.836;2023-04-25T09:47:27;9.90;99.90
37300;DHT22;23184;51.902;12.836;2023-04-25T09:49:54;9.80;99.90
37300;DHT22;23184;51.902;12.836;2023-04-25T09:52:22;9.80;99.90
37300;DHT22;23184;51.902;12.836;2023-04-25T09:54:49;10.00;99.90
37300;DHT22;23184;51.902;12.836;2023-04-25T09:57:19;9.80;99.90
37300;DHT22;23184;51.902;12.836;2023-04-25T09:59:49;9.60;99.90
37300;DHT22;23184;51.902;12.836;2023-04-25T10:02:17;9.50;99.90
37300;DHT22;23184;51.902;12.836;2023-04-25T10:04:48;9.80;99.90
37300;DHT22;23184;51.902;12.836;2023-04-25T10:07:14;9.90;99.90
37300;DHT22;23184;51.902;12.836;2023-04-25T10:09:40;10.00;99.90
37300;DHT22;23184;51.902;12.836;2023-04-25T10:12:07;10.10;99.90
37300;DHT22;23184;51.902;12.836;2023-04-25T10:14:33;10.20;99.90
37300;DHT22;23184;51.902;12.836;2023-04-25T10:17:00;10.20;99.90
37300;DHT22;23184;51.902;12.836;2023-04-25T10:19:27;10.40;99.90
37300;DHT22;23184;51.902;12.836;2023-04-25T10:24:58;11.40;99.90
37300;DHT22;23184;51.902;12.836;2023-04-25T10:27:24;11.40;99.90
37300;DHT22;23184;51.902;12.836;2023-04-25T10:30:10;11.30;99.90
37300;DHT22;23184;51.902;12.836;2023-04-25T10:32:39;11.00;99.90
37300;DHT22;23184;51.902;12.836;2023-04-25T10:35:17;10.80;99.90
37300;DHT22;23184;51.902;12.836;2023-04-25T10:38:11;10.70;99.90
37300;DHT22;23184;51.902;12.836;2023-04-25T10:40:38;10.80;99.90
37300;DHT22;23184;51.902;12.836;2023-04-25T10:43:39;10.70;99.90
37300;DHT22;23184;51.902;12.836;2023-04-25T10:48:51;10.50;99.90
37300;DHT22;23184;51.902;12.836;2023-04-25T10:51:26;10.30;99.90
37300;DHT22;23184;51.902;12.836;2023-04-25T10:56:21;10.00;99.90
37300;DHT22;23184;51.902;12.836;2023-04-25T10:58:48;10.00;99.90
37300;DHT22;23184;51.902;12.836;2023-04-25T11:01:14;9.90;99.90
37300;DHT22;23184;51.902;12.836;2023-04-25T11:03:41;10.00;99.90
37300;DHT22;23184;51.902;12.836;2023-04-25T11:06:34;10.00;99.90
37300;DHT22;23184;51.902;12.836;2023-04-25T11:09:03;10.10;99.90
37300;DHT22;23184;51.902;12.836;2023-04-25T11:11:36;10.50;99.90
37300;DHT22;23184;51.902;12.836;2023-04-25T11:14:02;10.50;99.90
37300;DHT22;23184;51.902;12.836;2023-04-25T11:16:27;10.20;99.90
37300;DHT22;23184;51.902;12.836;2023-04-25T11:18:53;10.30;99.90
37300;DHT22;23184;51.902;12.836;2023-04-25T11:21:18;10.20;99.90
37300;DHT22;23184;51.902;12.836;2023-04-25T11:23:45;10.00;99.90
37300;DHT22;23184;51.902;12.836;2023-04-25T11:26:13;9.70;99.90
37300;DHT22;23184;51.902;12.836;2023-04-25T11:28:38;9.60;99.90
37300;DHT22;23184;51.902;12.836;2023-04-25T11:31:04;9.50;99.90
37300;DHT22;23184;51.902;12.836;2023-04-25T11:33:29;9.50;99.90
37300;DHT22;23184;51.902;12.836;2023-04-25T11:35:56;9.50;99.90
37300;DHT22;23184;51.902;12.836;2023-04-25T11:38:25;9.30;99.90
37300;DHT22;23184;51.902;12.836;2023-04-25T11:40:52;9.30;99.90
37300;DHT22;23184;51.902;12.836;2023-04-25T11:43:20;9.30;99.90
37300;DHT22;23184;51.902;12.836;2023-04-25T11:45:49;9.40;99.90
37300;DHT22;23184;51.902;12.836;2023-04-25T11:48:16;9.50;99.90
37300;DHT22;23184;51.902;12.836;2023-04-25T11:50:42;9.80;99.90
37300;DHT22;23184;51.902;12.836;2023-04-25T11:53:08;10.00;99.90
37300;DHT22;23184;51.902;12.836;2023-04-25T11:55:34;10.30;99.90
37300;DHT22;23184;51.902;12.836;2023-04-25T11:58:00;10.70;99.90
37300;DHT22;23184;51.902;12.836;2023-04-25T12:00:26;11.60;99.90
37300;DHT22;23184;51.902;12.836;2023-04-25T12:02:56;11.70;99.90
37300;DHT22;23184;51.902;12.836;2023-04-25T12:05:30;11.90;99.90
37300;DHT22;23184;51.902;12.836;2023-04-25T12:07:56;11.70;99.90
37300;DHT22;23184;51.902;12.836;2023-04-25T12:10:21;11.30;99.90
37300;DHT22;23184;51.902;12.836;2023-04-25T12:12:49;10.50;99.90
37300;DHT22;23184;51.902;12.836;2023-04-25T12:15:16;10.50;99.90
37300;DHT22;23184;51.902;12.836;2023-04-25T12:17:48;10.30;99.90
37300;DHT22;23184;51.902;12.836;2023-04-25T12:20:16;10.10;99.90
37300;DHT22;23184;51.902;12.836;2023-04-25T12:22:44;9.90;99.90
37300;DHT22;23184;51.902;12.836;2023-04-25T12:25:55;9.90;99.90
37300;DHT22;23184;51.902;12.836;2023-04-25T12:28:18;10.00;99.90
37300;DHT22;23184;51.902;12.836;2023-04-25T12:33:21;10.00;99.90
37300;DHT22;23184;51.902;12.836;2023-04-25T12:35:47;10.20;99.90
37300;DHT22;23184;51.902;12.836;2023-04-25T12:38:21;10.20;99.90
37300;DHT22;23184;51.902;12.836;2023-04-25T12:40:47;10.50;99.30
37300;DHT22;23184;51.902;12.836;2023-04-25T12:43:12;10.80;97.60
37300;DHT22;23184;51.902;12.836;2023-04-25T12:45:37;11.20;99.00
37300;DHT22;23184;51.902;12.836;2023-04-25T12:48:03;11.50;95.70
37300;DHT22;23184;51.902;12.836;2023-04-25T12:50:29;11.80;95.20
37300;DHT22;23184;51.902;12.836;2023-04-25T12:52:54;12.00;93.10
37300;DHT22;23184;51.902;12.836;2023-04-25T12:55:20;12.10;93.80
37300;DHT22;23184;51.902;12.836;2023-04-25T12:57:46;12.60;92.00
37300;DHT22;23184;51.902;12.836;2023-04-25T13:00:12;12.30;88.70
37300;DHT22;23184;51.902;12.836;2023-04-25T13:02:40;12.20;91.30
37300;DHT22;23184;51.902;12.836;2023-04-25T13:05:06;12.00;91.20
37300;DHT22;23184;51.902;12.836;2023-04-25T13:07:31;11.70;90.30
37300;DHT22;23184;51.902;12.836;2023-04-25T13:09:57;11.50;91.40
37300;DHT22;23184;51.902;12.836;2023-04-25T13:12:22;11.20;91.40
37300;DHT22;23184;51.902;12.836;2023-04-25T13:14:48;10.90;95.10
37300;DHT22;23184;51.902;12.836;2023-04-25T13:17:13;10.80;95.60
37300;DHT22;23184;51.902;12.836;2023-04-25T13:19:39;10.60;97.00
37300;DHT22;23184;51.902;12.836;2023-04-25T13:22:04;10.60;97.10
37300;DHT22;23184;51.902;12.836;2023-04-25T13:24:30;10.30;95.80
37300;DHT22;23184;51.902;12.836;2023-04-25T13:26:55;10.20;98.10
37300;DHT22;23184;51.902;12.836;2023-04-25T13:29:21;10.20;99.40
37300;DHT22;23184;51.902;12.836;2023-04-25T13:31:46;10.20;96.60
37300;DHT22;23184;51.902;12.836;2023-04-25T13:34:12;10.20;95.90
37300;DHT22;23184;51.902;12.836;2023-04-25T13:36:37;10.40;97.50
37300;DHT22;23184;51.902;12.836;2023-04-25T13:39:03;10.50;98.00
37300;DHT22;23184;51.902;12.836;2023-04-25T13:41:30;11.00;99.90
37300;DHT22;23184;51.902;12.836;2023-04-25T13:43:55;11.60;99.70
37300;DHT22;23184;51.902;12.836;2023-04-25T13:46:21;11.70;93.60
37300;DHT22;23184;51.902;12.836;2023-04-25T13:48:46;11.30;91.40
37300;DHT22;23184;51.902;12.836;2023-04-25T13:51:15;10.80;93.50
37300;DHT22;23184;51.902;12.836;2023-04-25T13:53:41;10.60;94.20
37300;DHT22;23184;51.902;12.836;2023-04-25T13:56:07;10.40;94.00
37300;DHT22;23184;51.902;12.836;2023-04-25T13:58:32;10.30;94.50
37300;DHT22;23184;51.902;12.836;2023-04-25T14:00:58;10.20;92.60
37300;DHT22;23184;51.902;12.836;2023-04-25T14:03:23;10.10;90.30
37300;DHT22;23184;51.902;12.836;2023-04-25T14:05:50;10.10;90.90
37300;DHT22;23184;51.902;12.836;2023-04-25T14:08:16;10.10;90.50
37300;DHT22;23184;51.902;12.836;2023-04-25T14:10:41;10.20;89.40
37300;DHT22;23184;51.902;12.836;2023-04-25T14:13:07;10.60;88.50
37300;DHT22;23184;51.902;12.836;2023-04-25T14:15:33;11.30;89.30
37300;DHT22;23184;51.902;12.836;2023-04-25T14:17:59;11.70;84.80
37300;DHT22;23184;51.902;12.836;2023-04-25T14:20:25;12.30;82.40
37300;DHT22;23184;51.902;12.836;2023-04-25T14:22:51;12.20;80.00
37300;DHT22;23184;51.902;12.836;2023-04-25T14:25:19;12.00;81.30
37300;DHT22;23184;51.902;12.836;2023-04-25T14:27:44;11.70;82.90
37300;DHT22;23184;51.902;12.836;2023-04-25T14:30:15;11.20;84.30
37300;DHT22;23184;51.902;12.836;2023-04-25T14:32:41;10.80;85.70
37300;DHT22;23184;51.902;12.836;2023-04-25T14:35:06;10.70;89.30
37300;DHT22;23184;51.902;12.836;2023-04-25T14:37:32;10.50;87.30
37300;DHT22;23184;51.902;12.836;2023-04-25T14:39:58;10.30;90.10
37300;DHT22;23184;51.902;12.836;2023-04-25T14:42:23;10.30;91.60
37300;DHT22;23184;51.902;12.836;2023-04-25T14:44:49;10.30;91.20
37300;DHT22;23184;51.902;12.836;2023-04-25T14:47:15;10.30;92.00
37300;DHT22;23184;51.902;12.836;2023-04-25T14:49:41;10.20;92.40
37300;DHT22;23184;51.902;12.836;2023-04-25T14:52:07;10.20;91.40
37300;DHT22;23184;51.902;12.836;2023-04-25T14:54:32;10.10;91.50
37300;DHT22;23184;51.902;12.836;2023-04-25T14:56:58;10.10;92.60
37300;DHT22;23184;51.902;12.836;2023-04-25T14:59:23;10.00;92.80
37300;DHT22;23184;51.902;12.836;2023-04-25T15:01:50;10.00;94.20
37300;DHT22;23184;51.902;12.836;2023-04-25T15:04:15;10.00;94.70
37300;DHT22;23184;51.902;12.836;2023-04-25T15:06:42;10.40;96.10
37300;DHT22;23184;51.902;12.836;2023-04-25T15:09:08;11.40;93.70
37300;DHT22;23184;51.902;12.836;2023-04-25T15:11:36;12.60;93.10
37300;DHT22;23184;51.902;12.836;2023-04-25T15:14:02;12.80;90.60
37300;DHT22;23184;51.902;12.836;2023-04-25T15:16:27;11.50;91.00
37300;DHT22;23184;51.902;12.836;2023-04-25T15:18:53;11.20;91.20
37300;DHT22;23184;51.902;12.836;2023-04-25T15:21:20;11.30;92.50
37300;DHT22;23184;51.902;12.836;2023-04-25T15:23:48;11.30;93.50
37300;DHT22;23184;51.902;12.836;2023-04-25T15:26:14;11.50;92.40
37300;DHT22;23184;51.902;12.836;2023-04-25T15:28:40;11.70;90.70
37300;DHT22;23184;51.902;12.836;2023-04-25T15:31:07;11.30;90.50
37300;DHT22;23184;51.902;12.836;2023-04-25T15:33:33;11.00;90.50